sensor_id;sensor_type;location;lat;lon;timestamp;P1;durP1;ratioP1;P2;durP2;ratioP2
417;SDS011;49;48.530;9.200;2022-08-14T00:01:29;7.90;;;4.53;;
417;SDS011;49;48.530;9.200;2022-08-14T00:03:56;5.20;;;4.03;;
417;SDS011;49;48.530;9.200;2022-08-14T00:06:23;6.10;;;3.80;;
417;SDS011;49;48.530;9.200;2022-08-14T00:08:50;5.87;;;4.33;;
417;SDS011;49;48.530;9.200;2022-08-14T00:11:17;4.40;;;3.47;;
417;SDS011;49;48.530;9.200;2022-08-14T00:13:44;11.60;;;4.20;;
417;SDS011;49;48.530;9.200;2022-08-14T00:16:14;5.17;;;4.10;;
417;SDS011;49;48.530;9.200;2022-08-14T00:18:41;10.47;;;5.10;;
417;SDS011;49;48.530;9.200;2022-08-14T00:21:08;5.57;;;4.33;;
417;SDS011;49;48.530;9.200;2022-08-14T00:23:35;5.30;;;4.20;;
417;SDS011;49;48.530;9.200;2022-08-14T00:26:02;9.73;;;4.33;;
417;SDS011;49;48.530;9.200;2022-08-14T00:28:29;4.90;;;4.00;;
417;SDS011;49;48.530;9.200;2022-08-14T00:30:56;5.33;;;4.03;;
417;SDS011;49;48.530;9.200;2022-08-14T00:33:26;4.73;;;3.90;;
417;SDS011;49;48.530;9.200;2022-08-14T00:35:54;8.30;;;4.20;;
417;SDS011;49;48.530;9.200;2022-08-14T00:38:21;10.50;;;4.93;;
417;SDS011;49;48.530;9.200;2022-08-14T00:40:48;8.70;;;4.73;;
417;SDS011;49;48.530;9.200;2022-08-14T00:43:15;7.07;;;4.40;;
417;SDS011;49;48.530;9.200;2022-08-14T00:45:42;11.70;;;4.67;;
417;SDS011;49;48.530;9.200;2022-08-14T00:48:10;9.10;;;5.03;;
417;SDS011;49;48.530;9.200;2022-08-14T00:50:38;16.03;;;4.57;;
417;SDS011;49;48.530;9.200;2022-08-14T00:53:05;11.30;;;4.50;;
417;SDS011;49;48.530;9.200;2022-08-14T00:55:33;6.33;;;4.20;;
417;SDS011;49;48.530;9.200;2022-08-14T00:58:05;8.60;;;4.37;;
417;SDS011;49;48.530;9.200;2022-08-14T01:00:50;7.50;;;4.50;;
417;SDS011;49;48.530;9.200;2022-08-14T01:03:18;8.53;;;3.90;;
417;SDS011;49;48.530;9.200;2022-08-14T01:05:48;11.70;;;4.83;;
417;SDS011;49;48.530;9.200;2022-08-14T01:08:17;9.97;;;4.60;;
417;SDS011;49;48.530;9.200;2022-08-14T01:10:46;7.43;;;4.53;;
417;SDS011;49;48.530;9.200;2022-08-14T01:13:18;5.90;;;4.40;;
417;SDS011;49;48.530;9.200;2022-08-14T01:15:48;6.33;;;4.57;;
417;SDS011;49;48.530;9.200;2022-08-14T01:18:17;7.17;;;4.20;;
417;SDS011;49;48.530;9.200;2022-08-14T01:21:06;5.83;;;4.50;;
417;SDS011;49;48.530;9.200;2022-08-14T01:23:41;5.23;;;4.17;;
417;SDS011;49;48.530;9.200;2022-08-14T01:26:09;12.20;;;4.47;;
417;SDS011;49;48.530;9.200;2022-08-14T01:28:38;6.80;;;4.53;;
417;SDS011;49;48.530;9.200;2022-08-14T01:31:09;7.33;;;4.67;;
417;SDS011;49;48.530;9.200;2022-08-14T01:33:39;15.63;;;5.40;;
417;SDS011;49;48.530;9.200;2022-08-14T01:36:08;7.13;;;4.90;;
417;SDS011;49;48.530;9.200;2022-08-14T01:38:37;7.43;;;5.20;;
417;SDS011;49;48.530;9.200;2022-08-14T01:41:07;14.90;;;6.13;;
417;SDS011;49;48.530;9.200;2022-08-14T01:43:42;7.47;;;5.40;;
417;SDS011;49;48.530;9.200;2022-08-14T01:46:12;6.93;;;5.33;;
417;SDS011;49;48.530;9.200;2022-08-14T01:48:41;8.30;;;4.83;;
417;SDS011;49;48.530;9.200;2022-08-14T01:51:09;5.80;;;4.40;;
417;SDS011;49;48.530;9.200;2022-08-14T01:53:43;5.73;;;4.70;;
417;SDS011;49;48.530;9.200;2022-08-14T01:56:12;13.53;;;8.83;;
417;SDS011;49;48.530;9.200;2022-08-14T01:58:42;10.03;;;6.37;;
417;SDS011;49;48.530;9.200;2022-08-14T02:01:13;6.63;;;5.20;;
417;SDS011;49;48.530;9.200;2022-08-14T02:03:40;10.13;;;5.20;;
417;SDS011;49;48.530;9.200;2022-08-14T02:06:07;4.80;;;4.50;;
417;SDS011;49;48.530;9.200;2022-08-14T02:08:36;4.67;;;4.43;;
417;SDS011;49;48.530;9.200;2022-08-14T02:11:07;7.17;;;5.10;;
417;SDS011;49;48.530;9.200;2022-08-14T02:13:48;6.63;;;5.07;;
417;SDS011;49;48.530;9.200;2022-08-14T02:16:23;8.27;;;5.17;;
417;SDS011;49;48.530;9.200;2022-08-14T02:18:54;6.60;;;5.20;;
417;SDS011;49;48.530;9.200;2022-08-14T02:21:23;13.37;;;5.50;;
417;SDS011;49;48.530;9.200;2022-08-14T02:23:52;16.13;;;6.10;;
417;SDS011;49;48.530;9.200;2022-08-14T02:26:23;5.90;;;5.40;;
417;SDS011;49;48.530;9.200;2022-08-14T02:28:57;15.77;;;5.20;;
417;SDS011;49;48.530;9.200;2022-08-14T02:31:26;8.40;;;5.53;;
417;SDS011;49;48.530;9.200;2022-08-14T02:33:57;6.40;;;5.17;;
417;SDS011;49;48.530;9.200;2022-08-14T02:36:25;6.90;;;5.00;;
417;SDS011;49;48.530;9.200;2022-08-14T02:38:52;8.20;;;5.97;;
417;SDS011;49;48.530;9.200;2022-08-14T02:41:19;6.90;;;5.17;;
417;SDS011;49;48.530;9.200;2022-08-14T02:43:49;5.70;;;4.53;;
417;SDS011;49;48.530;9.200;2022-08-14T02:46:16;4.70;;;4.40;;
417;SDS011;49;48.530;9.200;2022-08-14T02:48:43;8.27;;;4.87;;
417;SDS011;49;48.530;9.200;2022-08-14T02:51:11;5.77;;;5.10;;
417;SDS011;49;48.530;9.200;2022-08-14T02:53:40;7.87;;;5.00;;
417;SDS011;49;48.530;9.200;2022-08-14T02:56:08;17.03;;;5.63;;
417;SDS011;49;48.530;9.200;2022-08-14T02:58:39;9.43;;;4.67;;
417;SDS011;49;48.530;9.200;2022-08-14T03:01:12;5.70;;;4.70;;
417;SDS011;49;48.530;9.200;2022-08-14T03:03:40;7.10;;;4.97;;
417;SDS011;49;48.530;9.200;2022-08-14T03:06:08;5.73;;;4.80;;
417;SDS011;49;48.530;9.200;2022-08-14T03:08:36;7.90;;;4.83;;
417;SDS011;49;48.530;9.200;2022-08-14T03:11:07;7.20;;;4.97;;
417;SDS011;49;48.530;9.200;2022-08-14T03:13:36;7.13;;;4.70;;
417;SDS011;49;48.530;9.200;2022-08-14T03:22:15;7.33;;;5.20;;
417;SDS011;49;48.530;9.200;2022-08-14T03:24:42;6.13;;;4.80;;
417;SDS011;49;48.530;9.200;2022-08-14T03:27:09;8.27;;;5.50;;
417;SDS011;49;48.530;9.200;2022-08-14T03:29:38;11.27;;;5.50;;
417;SDS011;49;48.530;9.200;2022-08-14T03:32:05;11.27;;;5.40;;
417;SDS011;49;48.530;9.200;2022-08-14T03:34:32;5.40;;;4.30;;
417;SDS011;49;48.530;9.200;2022-08-14T03:37:02;7.27;;;5.50;;
417;SDS011;49;48.530;9.200;2022-08-14T03:39:29;5.83;;;4.90;;
417;SDS011;49;48.530;9.200;2022-08-14T03:41:56;9.03;;;5.43;;
417;SDS011;49;48.530;9.200;2022-08-14T03:44:23;9.33;;;5.03;;
417;SDS011;49;48.530;9.200;2022-08-14T03:46:50;8.73;;;5.40;;
417;SDS011;49;48.530;9.200;2022-08-14T03:49:19;9.83;;;5.80;;
417;SDS011;49;48.530;9.200;2022-08-14T03:51:48;5.90;;;5.00;;
417;SDS011;49;48.530;9.200;2022-08-14T03:54:17;8.53;;;5.20;;
417;SDS011;49;48.530;9.200;2022-08-14T03:56:43;6.50;;;5.57;;
417;SDS011;49;48.530;9.200;2022-08-14T03:59:10;8.63;;;5.60;;
417;SDS011;49;48.530;9.200;2022-08-14T04:01:38;11.10;;;5.33;;
417;SDS011;49;48.530;9.200;2022-08-14T04:04:06;8.63;;;5.07;;
417;SDS011;49;48.530;9.200;2022-08-14T04:06:35;6.57;;;4.97;;
417;SDS011;49;48.530;9.200;2022-08-14T04:09:03;8.30;;;4.80;;
417;SDS011;49;48.530;9.200;2022-08-14T04:11:32;6.17;;;4.57;;
417;SDS011;49;48.530;9.200;2022-08-14T04:14:00;5.80;;;5.27;;
417;SDS011;49;48.530;9.200;2022-08-14T04:16:27;11.80;;;5.93;;
417;SDS011;49;48.530;9.200;2022-08-14T04:18:54;8.73;;;5.63;;
417;SDS011;49;48.530;9.200;2022-08-14T04:21:25;6.77;;;6.27;;
417;SDS011;49;48.530;9.200;2022-08-14T04:23:54;6.87;;;5.17;;
417;SDS011;49;48.530;9.200;2022-08-14T04:26:23;6.87;;;5.10;;
417;SDS011;49;48.530;9.200;2022-08-14T04:28:53;8.23;;;5.97;;
417;SDS011;49;48.530;9.200;2022-08-14T04:31:22;6.70;;;5.40;;
417;SDS011;49;48.530;9.200;2022-08-14T04:33:50;5.80;;;4.87;;
417;SDS011;49;48.530;9.200;2022-08-14T04:36:18;8.00;;;5.53;;
417;SDS011;49;48.530;9.200;2022-08-14T04:38:45;7.10;;;5.10;;
417;SDS011;49;48.530;9.200;2022-08-14T04:41:29;5.77;;;5.50;;
417;SDS011;49;48.530;9.200;2022-08-14T04:44:14;6.90;;;4.97;;
417;SDS011;49;48.530;9.200;2022-08-14T04:46:41;11.83;;;5.40;;
417;SDS011;49;48.530;9.200;2022-08-14T04:49:30;10.27;;;5.77;;
417;SDS011;49;48.530;9.200;2022-08-14T04:51:56;6.37;;;5.47;;
417;SDS011;49;48.530;9.200;2022-08-14T04:54:24;10.43;;;5.43;;
417;SDS011;49;48.530;9.200;2022-08-14T04:56:52;7.60;;;5.83;;
417;SDS011;49;48.530;9.200;2022-08-14T04:59:22;8.47;;;5.20;;
417;SDS011;49;48.530;9.200;2022-08-14T05:01:49;8.67;;;5.97;;
417;SDS011;49;48.530;9.200;2022-08-14T05:04:17;6.60;;;5.33;;
417;SDS011;49;48.530;9.200;2022-08-14T05:06:45;7.73;;;5.40;;
417;SDS011;49;48.530;9.200;2022-08-14T05:09:13;6.50;;;4.90;;
417;SDS011;49;48.530;9.200;2022-08-14T05:11:40;7.30;;;5.30;;
417;SDS011;49;48.530;9.200;2022-08-14T05:14:08;20.87;;;5.17;;
417;SDS011;49;48.530;9.200;2022-08-14T05:16:37;5.43;;;4.70;;
417;SDS011;49;48.530;9.200;2022-08-14T05:19:04;7.10;;;5.63;;
417;SDS011;49;48.530;9.200;2022-08-14T05:21:34;16.13;;;5.30;;
417;SDS011;49;48.530;9.200;2022-08-14T05:24:01;9.17;;;4.77;;
417;SDS011;49;48.530;9.200;2022-08-14T05:26:30;8.13;;;4.90;;
417;SDS011;49;48.530;9.200;2022-08-14T05:28:58;8.27;;;4.97;;
417;SDS011;49;48.530;9.200;2022-08-14T05:31:25;8.00;;;4.50;;
417;SDS011;49;48.530;9.200;2022-08-14T05:33:53;6.13;;;4.63;;
417;SDS011;49;48.530;9.200;2022-08-14T05:36:20;6.90;;;5.03;;
417;SDS011;49;48.530;9.200;2022-08-14T05:38:47;12.03;;;4.60;;
417;SDS011;49;48.530;9.200;2022-08-14T05:41:16;7.83;;;4.13;;
417;SDS011;49;48.530;9.200;2022-08-14T05:43:45;7.50;;;3.90;;
417;SDS011;49;48.530;9.200;2022-08-14T05:46:13;5.40;;;3.77;;
417;SDS011;49;48.530;9.200;2022-08-14T05:48:45;9.13;;;4.07;;
417;SDS011;49;48.530;9.200;2022-08-14T05:51:15;7.50;;;4.50;;
417;SDS011;49;48.530;9.200;2022-08-14T05:53:43;6.73;;;5.30;;
417;SDS011;49;48.530;9.200;2022-08-14T05:56:23;5.20;;;4.00;;
417;SDS011;49;48.530;9.200;2022-08-14T05:58:51;6.30;;;4.13;;
417;SDS011;49;48.530;9.200;2022-08-14T06:01:18;6.50;;;3.67;;
417;SDS011;49;48.530;9.200;2022-08-14T06:03:45;4.40;;;3.90;;
417;SDS011;49;48.530;9.200;2022-08-14T06:06:12;9.13;;;4.37;;
417;SDS011;49;48.530;9.200;2022-08-14T06:08:41;4.10;;;3.83;;
417;SDS011;49;48.530;9.200;2022-08-14T06:11:08;7.57;;;3.80;;
417;SDS011;49;48.530;9.200;2022-08-14T06:13:36;15.23;;;3.47;;
417;SDS011;49;48.530;9.200;2022-08-14T06:16:05;6.70;;;3.73;;
417;SDS011;49;48.530;9.200;2022-08-14T06:18:33;8.90;;;3.90;;
417;SDS011;49;48.530;9.200;2022-08-14T06:21:00;10.30;;;3.77;;
417;SDS011;49;48.530;9.200;2022-08-14T06:23:28;6.33;;;4.00;;
417;SDS011;49;48.530;9.200;2022-08-14T06:25:56;15.27;;;3.77;;
417;SDS011;49;48.530;9.200;2022-08-14T06:28:24;8.87;;;3.93;;
417;SDS011;49;48.530;9.200;2022-08-14T06:30:53;3.97;;;3.43;;
417;SDS011;49;48.530;9.200;2022-08-14T06:33:21;9.23;;;3.80;;
417;SDS011;49;48.530;9.200;2022-08-14T06:35:49;4.40;;;3.30;;
417;SDS011;49;48.530;9.200;2022-08-14T06:38:17;4.13;;;3.40;;
417;SDS011;49;48.530;9.200;2022-08-14T06:40:46;10.63;;;3.50;;
417;SDS011;49;48.530;9.200;2022-08-14T06:43:15;12.40;;;3.50;;
417;SDS011;49;48.530;9.200;2022-08-14T06:45:44;7.27;;;3.40;;
417;SDS011;49;48.530;9.200;2022-08-14T06:48:13;7.00;;;3.50;;
417;SDS011;49;48.530;9.200;2022-08-14T06:50:43;6.90;;;3.43;;
417;SDS011;49;48.530;9.200;2022-08-14T06:53:12;5.10;;;3.10;;
417;SDS011;49;48.530;9.200;2022-08-14T06:55:41;4.10;;;3.47;;
417;SDS011;49;48.530;9.200;2022-08-14T06:58:10;11.83;;;4.80;;
417;SDS011;49;48.530;9.200;2022-08-14T07:00:40;5.43;;;3.20;;
417;SDS011;49;48.530;9.200;2022-08-14T07:03:31;5.50;;;3.80;;
417;SDS011;49;48.530;9.200;2022-08-14T07:06:16;4.30;;;3.17;;
417;SDS011;49;48.530;9.200;2022-08-14T07:08:44;4.73;;;3.20;;
417;SDS011;49;48.530;9.200;2022-08-14T07:11:14;10.23;;;3.23;;
417;SDS011;49;48.530;9.200;2022-08-14T07:13:42;3.20;;;2.97;;
417;SDS011;49;48.530;9.200;2022-08-14T07:16:16;4.63;;;3.10;;
417;SDS011;49;48.530;9.200;2022-08-14T07:18:47;7.33;;;2.97;;
417;SDS011;49;48.530;9.200;2022-08-14T07:21:17;4.50;;;3.17;;
417;SDS011;49;48.530;9.200;2022-08-14T07:23:44;3.70;;;2.93;;
417;SDS011;49;48.530;9.200;2022-08-14T07:26:12;4.40;;;3.27;;
417;SDS011;49;48.530;9.200;2022-08-14T07:28:42;4.00;;;3.23;;
417;SDS011;49;48.530;9.200;2022-08-14T07:31:12;5.10;;;3.30;;
417;SDS011;49;48.530;9.200;2022-08-14T07:33:42;3.97;;;3.37;;
417;SDS011;49;48.530;9.200;2022-08-14T07:36:14;12.43;;;3.33;;
417;SDS011;49;48.530;9.200;2022-08-14T07:38:44;8.73;;;3.60;;
417;SDS011;49;48.530;9.200;2022-08-14T07:41:12;6.30;;;2.90;;
417;SDS011;49;48.530;9.200;2022-08-14T07:43:44;2.97;;;2.70;;
417;SDS011;49;48.530;9.200;2022-08-14T07:46:12;6.10;;;2.90;;
417;SDS011;49;48.530;9.200;2022-08-14T07:48:42;4.00;;;3.20;;
417;SDS011;49;48.530;9.200;2022-08-14T07:51:09;3.50;;;3.30;;
417;SDS011;49;48.530;9.200;2022-08-14T07:53:37;8.23;;;2.97;;
417;SDS011;49;48.530;9.200;2022-08-14T07:56:05;7.10;;;3.20;;
417;SDS011;49;48.530;9.200;2022-08-14T07:58:34;4.60;;;3.13;;
417;SDS011;49;48.530;9.200;2022-08-14T08:01:05;4.23;;;3.10;;
417;SDS011;49;48.530;9.200;2022-08-14T08:03:43;4.27;;;3.10;;
417;SDS011;49;48.530;9.200;2022-08-14T08:06:17;4.63;;;3.27;;
417;SDS011;49;48.530;9.200;2022-08-14T08:08:46;6.77;;;3.03;;
417;SDS011;49;48.530;9.200;2022-08-14T08:11:21;3.20;;;2.50;;
417;SDS011;49;48.530;9.200;2022-08-14T08:13:48;7.00;;;2.77;;
417;SDS011;49;48.530;9.200;2022-08-14T08:16:26;3.87;;;2.83;;
417;SDS011;49;48.530;9.200;2022-08-14T08:18:55;4.50;;;3.10;;
417;SDS011;49;48.530;9.200;2022-08-14T08:21:23;7.20;;;3.13;;
417;SDS011;49;48.530;9.200;2022-08-14T08:23:53;4.33;;;2.90;;
417;SDS011;49;48.530;9.200;2022-08-14T08:26:30;3.33;;;2.50;;
417;SDS011;49;48.530;9.200;2022-08-14T08:29:00;5.13;;;2.70;;
417;SDS011;49;48.530;9.200;2022-08-14T08:31:28;4.13;;;2.70;;
417;SDS011;49;48.530;9.200;2022-08-14T08:33:57;7.30;;;2.97;;
417;SDS011;49;48.530;9.200;2022-08-14T08:36:25;4.00;;;2.77;;
417;SDS011;49;48.530;9.200;2022-08-14T08:38:52;6.33;;;4.00;;
417;SDS011;49;48.530;9.200;2022-08-14T08:41:37;6.87;;;3.03;;
417;SDS011;49;48.530;9.200;2022-08-14T08:44:06;4.50;;;2.63;;
417;SDS011;49;48.530;9.200;2022-08-14T08:46:33;6.50;;;2.87;;
417;SDS011;49;48.530;9.200;2022-08-14T08:49:04;3.47;;;2.93;;
417;SDS011;49;48.530;9.200;2022-08-14T08:51:33;6.17;;;3.17;;
417;SDS011;49;48.530;9.200;2022-08-14T08:54:04;4.30;;;3.03;;
417;SDS011;49;48.530;9.200;2022-08-14T08:56:34;4.30;;;2.83;;
417;SDS011;49;48.530;9.200;2022-08-14T08:59:14;6.53;;;2.90;;
417;SDS011;49;48.530;9.200;2022-08-14T09:01:46;5.20;;;2.77;;
417;SDS011;49;48.530;9.200;2022-08-14T09:04:17;4.03;;;3.20;;
417;SDS011;49;48.530;9.200;2022-08-14T09:06:44;3.47;;;2.90;;
417;SDS011;49;48.530;9.200;2022-08-14T09:09:20;4.50;;;3.37;;
417;SDS011;49;48.530;9.200;2022-08-14T09:11:50;5.57;;;2.70;;
417;SDS011;49;48.530;9.200;2022-08-14T09:14:22;8.63;;;3.50;;
417;SDS011;49;48.530;9.200;2022-08-14T09:16:50;3.00;;;2.80;;
417;SDS011;49;48.530;9.200;2022-08-14T09:19:19;8.20;;;3.27;;
417;SDS011;49;48.530;9.200;2022-08-14T09:21:46;3.53;;;2.67;;
417;SDS011;49;48.530;9.200;2022-08-14T09:24:19;3.10;;;2.60;;
417;SDS011;49;48.530;9.200;2022-08-14T09:26:47;4.50;;;2.70;;
417;SDS011;49;48.530;9.200;2022-08-14T09:29:14;10.23;;;2.57;;
417;SDS011;49;48.530;9.200;2022-08-14T09:31:43;2.90;;;2.50;;
417;SDS011;49;48.530;9.200;2022-08-14T09:34:17;4.63;;;2.77;;
417;SDS011;49;48.530;9.200;2022-08-14T09:37:05;5.87;;;2.73;;
417;SDS011;49;48.530;9.200;2022-08-14T09:39:55;6.13;;;2.70;;
417;SDS011;49;48.530;9.200;2022-08-14T09:42:38;3.20;;;2.90;;
417;SDS011;49;48.530;9.200;2022-08-14T09:45:18;8.63;;;3.80;;
417;SDS011;49;48.530;9.200;2022-08-14T09:47:49;4.27;;;2.70;;
417;SDS011;49;48.530;9.200;2022-08-14T09:50:21;3.03;;;2.50;;
417;SDS011;49;48.530;9.200;2022-08-14T09:52:50;5.97;;;3.20;;
417;SDS011;49;48.530;9.200;2022-08-14T09:55:19;4.00;;;2.30;;
417;SDS011;49;48.530;9.200;2022-08-14T09:57:48;4.67;;;2.47;;
417;SDS011;49;48.530;9.200;2022-08-14T10:00:17;4.00;;;3.00;;
417;SDS011;49;48.530;9.200;2022-08-14T10:02:51;2.60;;;2.40;;
417;SDS011;49;48.530;9.200;2022-08-14T10:05:31;2.73;;;2.47;;
417;SDS011;49;48.530;9.200;2022-08-14T10:08:00;2.80;;;2.60;;
417;SDS011;49;48.530;9.200;2022-08-14T10:10:39;3.60;;;2.57;;
417;SDS011;49;48.530;9.200;2022-08-14T10:13:18;2.93;;;2.70;;
417;SDS011;49;48.530;9.200;2022-08-14T10:15:47;5.80;;;2.37;;
417;SDS011;49;48.530;9.200;2022-08-14T10:18:15;4.33;;;2.37;;
417;SDS011;49;48.530;9.200;2022-08-14T10:20:54;3.50;;;2.60;;
417;SDS011;49;48.530;9.200;2022-08-14T10:23:25;2.77;;;2.20;;
417;SDS011;49;48.530;9.200;2022-08-14T10:25:56;7.57;;;2.67;;
417;SDS011;49;48.530;9.200;2022-08-14T10:28:45;3.70;;;2.27;;
417;SDS011;49;48.530;9.200;2022-08-14T10:31:20;4.77;;;2.13;;
417;SDS011;49;48.530;9.200;2022-08-14T10:33:59;2.73;;;2.53;;
417;SDS011;49;48.530;9.200;2022-08-14T10:36:33;3.53;;;3.03;;
417;SDS011;49;48.530;9.200;2022-08-14T10:39:06;6.30;;;2.33;;
417;SDS011;49;48.530;9.200;2022-08-14T10:41:35;8.60;;;2.23;;
417;SDS011;49;48.530;9.200;2022-08-14T10:44:06;2.53;;;2.33;;
417;SDS011;49;48.530;9.200;2022-08-14T10:46:40;3.63;;;2.43;;
417;SDS011;49;48.530;9.200;2022-08-14T10:49:16;3.03;;;2.63;;
417;SDS011;49;48.530;9.200;2022-08-14T10:51:58;4.40;;;2.30;;
417;SDS011;49;48.530;9.200;2022-08-14T10:54:31;2.63;;;2.03;;
417;SDS011;49;48.530;9.200;2022-08-14T10:57:13;2.57;;;2.10;;
417;SDS011;49;48.530;9.200;2022-08-14T10:59:46;3.20;;;2.33;;
417;SDS011;49;48.530;9.200;2022-08-14T11:02:19;2.50;;;2.33;;
417;SDS011;49;48.530;9.200;2022-08-14T11:04:59;2.60;;;2.27;;
417;SDS011;49;48.530;9.200;2022-08-14T11:07:30;2.33;;;2.10;;
417;SDS011;49;48.530;9.200;2022-08-14T11:09:59;4.63;;;2.13;;
417;SDS011;49;48.530;9.200;2022-08-14T11:12:40;3.60;;;2.27;;
417;SDS011;49;48.530;9.200;2022-08-14T11:15:10;2.87;;;2.30;;
417;SDS011;49;48.530;9.200;2022-08-14T11:17:38;9.13;;;2.50;;
417;SDS011;49;48.530;9.200;2022-08-14T11:20:06;2.10;;;2.00;;
417;SDS011;49;48.530;9.200;2022-08-14T11:22:37;8.60;;;2.27;;
417;SDS011;49;48.530;9.200;2022-08-14T11:25:07;4.30;;;2.53;;
417;SDS011;49;48.530;9.200;2022-08-14T11:27:35;2.30;;;2.10;;
417;SDS011;49;48.530;9.200;2022-08-14T11:30:08;2.27;;;1.83;;
417;SDS011;49;48.530;9.200;2022-08-14T11:32:37;2.60;;;2.27;;
417;SDS011;49;48.530;9.200;2022-08-14T11:35:10;4.37;;;2.17;;
417;SDS011;49;48.530;9.200;2022-08-14T11:37:51;2.47;;;2.27;;
417;SDS011;49;48.530;9.200;2022-08-14T11:40:19;1.90;;;1.90;;
417;SDS011;49;48.530;9.200;2022-08-14T11:42:47;2.33;;;2.20;;
417;SDS011;49;48.530;9.200;2022-08-14T11:45:19;2.50;;;2.30;;
417;SDS011;49;48.530;9.200;2022-08-14T11:47:47;2.70;;;2.53;;
417;SDS011;49;48.530;9.200;2022-08-14T11:50:16;2.70;;;2.13;;
417;SDS011;49;48.530;9.200;2022-08-14T11:52:45;2.33;;;2.07;;
417;SDS011;49;48.530;9.200;2022-08-14T11:55:13;2.70;;;2.20;;
417;SDS011;49;48.530;9.200;2022-08-14T11:57:41;2.40;;;2.20;;
417;SDS011;49;48.530;9.200;2022-08-14T12:00:11;2.40;;;2.30;;
417;SDS011;49;48.530;9.200;2022-08-14T12:02:51;4.00;;;2.33;;
417;SDS011;49;48.530;9.200;2022-08-14T12:05:32;2.40;;;2.10;;
417;SDS011;49;48.530;9.200;2022-08-14T12:08:03;5.23;;;2.30;;
417;SDS011;49;48.530;9.200;2022-08-14T12:10:33;3.60;;;2.20;;
417;SDS011;49;48.530;9.200;2022-08-14T12:13:11;9.60;;;2.53;;
417;SDS011;49;48.530;9.200;2022-08-14T12:15:39;2.80;;;2.60;;
417;SDS011;49;48.530;9.200;2022-08-14T12:18:08;3.87;;;2.50;;
417;SDS011;49;48.530;9.200;2022-08-14T12:20:37;2.60;;;2.40;;
417;SDS011;49;48.530;9.200;2022-08-14T12:23:07;5.80;;;3.60;;
417;SDS011;49;48.530;9.200;2022-08-14T12:25:49;2.50;;;2.27;;
417;SDS011;49;48.530;9.200;2022-08-14T12:28:28;2.77;;;2.30;;
417;SDS011;49;48.530;9.200;2022-08-14T12:30:55;3.33;;;2.40;;
417;SDS011;49;48.530;9.200;2022-08-14T12:33:24;4.37;;;2.57;;
417;SDS011;49;48.530;9.200;2022-08-14T12:35:54;5.00;;;2.40;;
417;SDS011;49;48.530;9.200;2022-08-14T12:38:30;9.30;;;2.37;;
417;SDS011;49;48.530;9.200;2022-08-14T12:41:00;3.37;;;2.20;;
417;SDS011;49;48.530;9.200;2022-08-14T12:43:30;2.67;;;2.13;;
417;SDS011;49;48.530;9.200;2022-08-14T12:45:58;5.53;;;2.23;;
417;SDS011;49;48.530;9.200;2022-08-14T12:48:25;2.73;;;2.13;;
417;SDS011;49;48.530;9.200;2022-08-14T12:50:53;3.20;;;2.33;;
417;SDS011;49;48.530;9.200;2022-08-14T12:53:31;3.07;;;2.30;;
417;SDS011;49;48.530;9.200;2022-08-14T12:56:02;3.77;;;2.90;;
417;SDS011;49;48.530;9.200;2022-08-14T12:58:31;5.17;;;2.63;;
417;SDS011;49;48.530;9.200;2022-08-14T13:01:04;4.30;;;2.57;;
417;SDS011;49;48.530;9.200;2022-08-14T13:03:34;3.77;;;2.60;;
417;SDS011;49;48.530;9.200;2022-08-14T13:06:01;3.13;;;2.73;;
417;SDS011;49;48.530;9.200;2022-08-14T13:08:29;4.07;;;2.83;;
417;SDS011;49;48.530;9.200;2022-08-14T13:10:58;2.60;;;2.43;;
417;SDS011;49;48.530;9.200;2022-08-14T13:13:32;5.30;;;2.90;;
417;SDS011;49;48.530;9.200;2022-08-14T13:16:01;6.63;;;2.63;;
417;SDS011;49;48.530;9.200;2022-08-14T13:18:30;4.67;;;3.20;;
417;SDS011;49;48.530;9.200;2022-08-14T13:20:59;15.23;;;3.40;;
417;SDS011;49;48.530;9.200;2022-08-14T13:23:31;4.40;;;3.03;;
417;SDS011;49;48.530;9.200;2022-08-14T13:25:59;4.07;;;2.53;;
417;SDS011;49;48.530;9.200;2022-08-14T13:28:27;3.57;;;3.10;;
417;SDS011;49;48.530;9.200;2022-08-14T13:30:56;4.10;;;3.23;;
417;SDS011;49;48.530;9.200;2022-08-14T13:33:27;4.50;;;2.83;;
417;SDS011;49;48.530;9.200;2022-08-14T13:35:57;5.37;;;2.90;;
417;SDS011;49;48.530;9.200;2022-08-14T13:38:26;6.33;;;2.63;;
417;SDS011;49;48.530;9.200;2022-08-14T13:40:55;3.60;;;2.97;;
417;SDS011;49;48.530;9.200;2022-08-14T13:43:22;2.70;;;2.50;;
417;SDS011;49;48.530;9.200;2022-08-14T13:45:49;10.33;;;2.70;;
417;SDS011;49;48.530;9.200;2022-08-14T13:48:22;4.00;;;3.30;;
417;SDS011;49;48.530;9.200;2022-08-14T13:50:51;7.23;;;3.40;;
417;SDS011;49;48.530;9.200;2022-08-14T13:53:21;4.57;;;3.07;;
417;SDS011;49;48.530;9.200;2022-08-14T13:55:50;3.57;;;3.10;;
417;SDS011;49;48.530;9.200;2022-08-14T13:58:19;2.80;;;2.53;;
417;SDS011;49;48.530;9.200;2022-08-14T14:00:49;3.80;;;2.90;;
417;SDS011;49;48.530;9.200;2022-08-14T14:03:17;4.77;;;2.80;;
417;SDS011;49;48.530;9.200;2022-08-14T14:05:47;5.43;;;3.17;;
417;SDS011;49;48.530;9.200;2022-08-14T14:08:17;7.40;;;3.20;;
417;SDS011;49;48.530;9.200;2022-08-14T14:10:46;4.50;;;2.90;;
417;SDS011;49;48.530;9.200;2022-08-14T14:13:14;2.90;;;2.80;;
417;SDS011;49;48.530;9.200;2022-08-14T14:15:42;5.40;;;2.50;;
417;SDS011;49;48.530;9.200;2022-08-14T14:18:09;5.73;;;2.93;;
417;SDS011;49;48.530;9.200;2022-08-14T14:20:37;5.23;;;3.40;;
417;SDS011;49;48.530;9.200;2022-08-14T14:23:09;3.53;;;3.13;;
417;SDS011;49;48.530;9.200;2022-08-14T14:25:41;3.30;;;3.00;;
417;SDS011;49;48.530;9.200;2022-08-14T14:28:11;9.93;;;3.53;;
417;SDS011;49;48.530;9.200;2022-08-14T14:30:42;3.23;;;3.07;;
417;SDS011;49;48.530;9.200;2022-08-14T14:33:12;4.70;;;3.20;;
417;SDS011;49;48.530;9.200;2022-08-14T14:35:42;4.73;;;3.10;;
417;SDS011;49;48.530;9.200;2022-08-14T14:38:15;5.33;;;3.43;;
417;SDS011;49;48.530;9.200;2022-08-14T14:40:46;3.70;;;3.00;;
417;SDS011;49;48.530;9.200;2022-08-14T14:43:14;5.50;;;3.30;;
417;SDS011;49;48.530;9.200;2022-08-14T14:45:43;3.40;;;3.10;;
417;SDS011;49;48.530;9.200;2022-08-14T14:48:13;3.00;;;2.80;;
417;SDS011;49;48.530;9.200;2022-08-14T14:50:40;4.23;;;3.30;;
417;SDS011;49;48.530;9.200;2022-08-14T14:53:10;4.57;;;3.60;;
417;SDS011;49;48.530;9.200;2022-08-14T14:55:39;4.97;;;3.63;;
417;SDS011;49;48.530;9.200;2022-08-14T14:58:10;3.83;;;3.20;;
417;SDS011;49;48.530;9.200;2022-08-14T15:00:43;3.90;;;3.47;;
417;SDS011;49;48.530;9.200;2022-08-14T15:03:12;3.73;;;3.27;;
417;SDS011;49;48.530;9.200;2022-08-14T15:05:39;2.87;;;2.77;;
417;SDS011;49;48.530;9.200;2022-08-14T15:08:06;5.33;;;3.40;;
417;SDS011;49;48.530;9.200;2022-08-14T15:10:33;5.00;;;3.23;;
417;SDS011;49;48.530;9.200;2022-08-14T15:13:01;5.77;;;3.17;;
417;SDS011;49;48.530;9.200;2022-08-14T15:15:30;3.30;;;3.00;;
417;SDS011;49;48.530;9.200;2022-08-14T15:17:58;4.07;;;3.30;;
417;SDS011;49;48.530;9.200;2022-08-14T15:20:26;3.37;;;3.07;;
417;SDS011;49;48.530;9.200;2022-08-14T15:22:53;4.63;;;3.23;;
417;SDS011;49;48.530;9.200;2022-08-14T15:25:20;4.40;;;3.00;;
417;SDS011;49;48.530;9.200;2022-08-14T15:27:47;4.43;;;3.50;;
417;SDS011;49;48.530;9.200;2022-08-14T15:30:16;5.33;;;3.33;;
417;SDS011;49;48.530;9.200;2022-08-14T15:32:49;4.70;;;3.47;;
417;SDS011;49;48.530;9.200;2022-08-14T15:35:16;4.50;;;3.40;;
417;SDS011;49;48.530;9.200;2022-08-14T15:37:45;4.03;;;3.57;;
417;SDS011;49;48.530;9.200;2022-08-14T15:40:12;4.40;;;3.10;;
417;SDS011;49;48.530;9.200;2022-08-14T15:42:39;5.73;;;3.30;;
417;SDS011;49;48.530;9.200;2022-08-14T15:45:12;8.10;;;3.20;;
417;SDS011;49;48.530;9.200;2022-08-14T15:47:42;5.33;;;3.67;;
417;SDS011;49;48.530;9.200;2022-08-14T15:50:10;3.90;;;3.20;;
417;SDS011;49;48.530;9.200;2022-08-14T15:52:37;5.13;;;3.43;;
417;SDS011;49;48.530;9.200;2022-08-14T15:55:07;3.20;;;3.00;;
417;SDS011;49;48.530;9.200;2022-08-14T15:57:36;5.60;;;2.97;;
417;SDS011;49;48.530;9.200;2022-08-14T16:00:04;4.50;;;3.10;;
417;SDS011;49;48.530;9.200;2022-08-14T16:02:52;3.30;;;3.10;;
417;SDS011;49;48.530;9.200;2022-08-14T16:05:20;3.77;;;3.10;;
417;SDS011;49;48.530;9.200;2022-08-14T16:07:49;4.60;;;3.37;;
417;SDS011;49;48.530;9.200;2022-08-14T16:10:17;16.60;;;3.50;;
417;SDS011;49;48.530;9.200;2022-08-14T16:12:45;5.20;;;3.50;;
417;SDS011;49;48.530;9.200;2022-08-14T16:15:12;5.33;;;3.10;;
417;SDS011;49;48.530;9.200;2022-08-14T16:17:39;4.30;;;2.93;;
417;SDS011;49;48.530;9.200;2022-08-14T16:20:09;3.60;;;3.07;;
417;SDS011;49;48.530;9.200;2022-08-14T16:22:36;10.80;;;5.70;;
417;SDS011;49;48.530;9.200;2022-08-14T16:25:05;6.67;;;4.53;;